sensor_id;sensor_type;location;lat;lon;timestamp;pressure;altitude;pressure_sealevel;temperature;humidity
13954;BME280;7049;49.444;8.522;2023-04-30T00:00:37;78037.78;;;-3.47;89.44
13954;BME280;7049;49.444;8.522;2023-04-30T00:05:38;78041.97;;;-3.47;89.71
13954;BME280;7049;49.444;8.522;2023-04-30T00:10:40;78054.53;;;-3.47;89.93
13954;BME280;7049;49.444;8.522;2023-04-30T00:15:43;78060.81;;;-3.47;90.21
13954;BME280;7049;49.444;8.522;2023-04-30T00:20:44;78062.91;;;-3.47;90.75
13954;BME280;7049;49.444;8.522;2023-04-30T00:25:46;78071.28;;;-3.47;91.20
13954;BME280;7049;49.444;8.522;2023-04-30T00:30:48;78075.47;;;-3.47;91.47
13954;BME280;7049;49.444;8.522;2023-04-30T00:35:50;78081.72;;;-3.47;91.35
13954;BME280;7049;49.444;8.522;2023-04-30T00:40:52;78083.81;;;-3.47;91.21
13954;BME280;7049;49.444;8.522;2023-04-30T00:45:55;78081.72;;;-3.47;91.30
13954;BME280;7049;49.444;8.522;2023-04-30T00:50:57;78090.09;;;-3.47;91.50
13954;BME280;7049;49.444;8.522;2023-04-30T00:55:59;78085.91;;;-3.47;91.29
13954;BME280;7049;49.444;8.522;2023-04-30T01:01:03;78081.72;;;-3.47;90.89
13954;BME280;7049;49.444;8.522;2023-04-30T01:06:04;78085.91;;;-3.47;90.60
13954;BME280;7049;49.444;8.522;2023-04-30T01:11:11;78088.00;;;-3.47;90.94
13954;BME280;7049;49.444;8.522;2023-04-30T01:16:22;78098.47;;;-3.47;90.26
13954;BME280;7049;49.444;8.522;2023-04-30T01:21:24;78098.47;;;-3.47;90.17
13954;BME280;7049;49.444;8.522;2023-04-30T01:26:44;78096.38;;;-3.47;90.08
13954;BME280;7049;49.444;8.522;2023-04-30T01:31:50;78096.38;;;-3.47;90.11
13954;BME280;7049;49.444;8.522;2023-04-30T01:37:00;78096.38;;;-3.47;90.21
13954;BME280;7049;49.444;8.522;2023-04-30T01:42:11;78096.38;;;-3.47;90.70
13954;BME280;7049;49.444;8.522;2023-04-30T01:47:23;78098.47;;;-3.47;90.57
13954;BME280;7049;49.444;8.522;2023-04-30T01:52:31;78100.56;;;-3.47;89.74
13954;BME280;7049;49.444;8.522;2023-04-30T01:57:40;78106.84;;;-3.47;89.82
13954;BME280;7049;49.444;8.522;2023-04-30T02:02:44;78111.03;;;-3.47;89.98
13954;BME280;7049;49.444;8.522;2023-04-30T02:07:48;78113.13;;;-3.47;90.21
13954;BME280;7049;49.444;8.522;2023-04-30T02:12:50;78115.22;;;-3.47;89.73
13954;BME280;7049;49.444;8.522;2023-04-30T02:17:52;78119.41;;;-3.47;89.93
13954;BME280;7049;49.444;8.522;2023-04-30T02:22:54;78119.41;;;-3.47;89.60
13954;BME280;7049;49.444;8.522;2023-04-30T02:27:55;78119.41;;;-3.47;89.76
13954;BME280;7049;49.444;8.522;2023-04-30T02:32:58;78121.50;;;-3.47;89.98
13954;BME280;7049;49.444;8.522;2023-04-30T02:38:00;78123.59;;;-3.47;90.15
13954;BME280;7049;49.444;8.522;2023-04-30T02:43:01;78123.59;;;-3.47;90.69
13954;BME280;7049;49.444;8.522;2023-04-30T02:48:05;78123.59;;;-3.47;91.13
13954;BME280;7049;49.444;8.522;2023-04-30T02:53:07;78125.69;;;-3.47;90.79
13954;BME280;7049;49.444;8.522;2023-04-30T02:58:08;78119.41;;;-3.47;91.23
13954;BME280;7049;49.444;8.522;2023-04-30T03:03:15;78125.69;;;-3.47;91.16
13954;BME280;7049;49.444;8.522;2023-04-30T03:08:16;78134.06;;;-3.47;91.46
13954;BME280;7049;49.444;8.522;2023-04-30T03:13:17;78140.31;;;-3.47;91.52
13954;BME280;7049;49.444;8.522;2023-04-30T03:18:21;78140.31;;;-3.47;91.51
13954;BME280;7049;49.444;8.522;2023-04-30T03:23:26;78144.50;;;-3.47;91.40
13954;BME280;7049;49.444;8.522;2023-04-30T03:28:28;78138.22;;;-3.47;91.16
13954;BME280;7049;49.444;8.522;2023-04-30T03:33:31;78138.22;;;-3.47;90.93
13954;BME280;7049;49.444;8.522;2023-04-30T03:38:32;78142.41;;;-3.47;91.21
13954;BME280;7049;49.444;8.522;2023-04-30T03:43:34;78136.16;;;-3.47;91.24
13954;BME280;7049;49.444;8.522;2023-04-30T03:48:36;78148.69;;;-3.47;90.59
13954;BME280;7049;49.444;8.522;2023-04-30T03:53:38;78148.69;;;-3.47;90.34
13954;BME280;7049;49.444;8.522;2023-04-30T03:58:39;78157.06;;;-3.47;90.79
13954;BME280;7049;49.444;8.522;2023-04-30T04:03:42;78154.97;;;-3.47;90.78
13954;BME280;7049;49.444;8.522;2023-04-30T04:08:44;78159.16;;;-3.47;90.53
13954;BME280;7049;49.444;8.522;2023-04-30T04:13:45;78163.34;;;-3.47;90.85
13954;BME280;7049;49.444;8.522;2023-04-30T04:18:48;78167.53;;;-3.47;91.39
13954;BME280;7049;49.444;8.522;2023-04-30T04:23:49;78171.72;;;-3.47;91.67
13954;BME280;7049;49.444;8.522;2023-04-30T04:28:51;78175.91;;;-3.47;91.89
13954;BME280;7049;49.444;8.522;2023-04-30T04:33:56;78171.72;;;-3.47;92.22
13954;BME280;7049;49.444;8.522;2023-04-30T04:38:58;78180.09;;;-3.47;92.31
13954;BME280;7049;49.444;8.522;2023-04-30T04:44:01;78180.09;;;-3.47;92.57
13954;BME280;7049;49.444;8.522;2023-04-30T04:49:06;78178.00;;;-3.47;92.55
13954;BME280;7049;49.444;8.522;2023-04-30T04:54:08;78175.91;;;-3.47;92.50
13954;BME280;7049;49.444;8.522;2023-04-30T04:59:09;78175.91;;;-3.47;92.57
13954;BME280;7049;49.444;8.522;2023-04-30T05:04:12;78175.91;;;-3.47;92.71
13954;BME280;7049;49.444;8.522;2023-04-30T05:09:14;78178.00;;;-3.47;92.30
13954;BME280;7049;49.444;8.522;2023-04-30T05:14:15;78163.34;;;-3.47;91.18
13954;BME280;7049;49.444;8.522;2023-04-30T05:19:20;78161.25;;;-3.47;89.82
13954;BME280;7049;49.444;8.522;2023-04-30T05:24:21;78163.34;;;-3.47;88.08
13954;BME280;7049;49.444;8.522;2023-04-30T05:29:23;78159.16;;;-3.47;87.62
13954;BME280;7049;49.444;8.522;2023-04-30T05:34:25;78157.06;;;-3.47;87.32
13954;BME280;7049;49.444;8.522;2023-04-30T05:39:27;78148.69;;;-3.47;86.68
13954;BME280;7049;49.444;8.522;2023-04-30T05:44:28;78144.50;;;-3.47;85.80
13954;BME280;7049;49.444;8.522;2023-04-30T05:49:31;78134.06;;;-3.47;85.98
13954;BME280;7049;49.444;8.522;2023-04-30T05:54:33;78125.69;;;-3.47;86.43
13954;BME280;7049;49.444;8.522;2023-04-30T05:59:34;78119.41;;;-3.47;86.11
13954;BME280;7049;49.444;8.522;2023-04-30T06:04:37;78106.84;;;-3.47;85.87
13954;BME280;7049;49.444;8.522;2023-04-30T06:09:38;78094.28;;;-3.47;84.74
13954;BME280;7049;49.444;8.522;2023-04-30T06:14:40;78083.81;;;-3.47;84.14
13954;BME280;7049;49.444;8.522;2023-04-30T06:19:45;78073.38;;;-3.47;84.11
13954;BME280;7049;49.444;8.522;2023-04-30T06:24:47;78056.63;;;-3.47;83.51
13954;BME280;7049;49.444;8.522;2023-04-30T06:29:48;78031.50;;;-3.47;83.17
13954;BME280;7049;49.444;8.522;2023-04-30T06:34:51;78014.78;;;-3.47;79.42
13954;BME280;7049;49.444;8.522;2023-04-30T06:39:52;77998.03;;;-3.47;77.59
13954;BME280;7049;49.444;8.522;2023-04-30T06:44:54;77987.56;;;-3.47;76.68
13954;BME280;7049;49.444;8.522;2023-04-30T06:49:56;77964.56;;;-3.47;75.91
13954;BME280;7049;49.444;8.522;2023-04-30T06:54:58;77939.44;;;-3.47;75.40
13954;BME280;7049;49.444;8.522;2023-04-30T07:00:00;77905.97;;;-3.47;75.49
13954;BME280;7049;49.444;8.522;2023-04-30T07:05:03;77872.47;;;-3.47;74.39
13954;BME280;7049;49.444;8.522;2023-04-30T07:10:05;77843.19;;;-3.47;73.53
13954;BME280;7049;49.444;8.522;2023-04-30T07:15:07;77818.06;;;-3.47;72.08
13954;BME280;7049;49.444;8.522;2023-04-30T07:20:11;77805.50;;;-3.47;68.18
13954;BME280;7049;49.444;8.522;2023-04-30T07:25:14;77786.69;;;-3.47;67.05
13954;BME280;7049;49.444;8.522;2023-04-30T07:30:16;77767.84;;;-3.47;64.63
13954;BME280;7049;49.444;8.522;2023-04-30T07:35:19;77755.28;;;-3.47;63.72
13954;BME280;7049;49.444;8.522;2023-04-30T07:40:22;77709.25;;;-3.47;62.27
13954;BME280;7049;49.444;8.522;2023-04-30T07:45:24;77663.22;;;-3.47;61.28
13954;BME280;7049;49.444;8.522;2023-04-30T07:50:28;77617.19;;;-3.47;59.75
13954;BME280;7049;49.444;8.522;2023-04-30T07:55:33;77579.53;;;-3.47;56.37
13954;BME280;7049;49.444;8.522;2023-04-30T08:00:35;77537.69;;;-3.47;55.94
13954;BME280;7049;49.444;8.522;2023-04-30T08:05:38;77504.22;;;-3.47;52.92
13954;BME280;7049;49.444;8.522;2023-04-30T08:10:40;77477.03;;;-3.47;50.69
13954;BME280;7049;49.444;8.522;2023-04-30T08:15:42;77460.28;;;-3.47;47.27
13954;BME280;7049;49.444;8.522;2023-04-30T08:20:44;77449.81;;;-3.47;46.67
13954;BME280;7049;49.444;8.522;2023-04-30T08:25:46;77439.34;;;-3.47;47.14
13954;BME280;7049;49.444;8.522;2023-04-30T08:30:47;77443.53;;;-3.47;46.76
13954;BME280;7049;49.444;8.522;2023-04-30T08:35:50;77441.44;;;-3.47;46.56
13954;BME280;7049;49.444;8.522;2023-04-30T08:40:57;77433.06;;;-3.47;46.78
13954;BME280;7049;49.444;8.522;2023-04-30T08:46:01;77424.72;;;-3.47;46.94
13954;BME280;7049;49.444;8.522;2023-04-30T08:51:04;77376.59;;;-3.47;46.89
13954;BME280;7049;49.444;8.522;2023-04-30T08:56:09;77366.13;;;-3.47;45.37
13954;BME280;7049;49.444;8.522;2023-04-30T09:01:10;77372.41;;;-3.47;44.50
13954;BME280;7049;49.444;8.522;2023-04-30T09:06:15;77384.97;;;-3.47;44.36
13954;BME280;7049;49.444;8.522;2023-04-30T09:11:21;77380.78;;;-3.47;43.14
13954;BME280;7049;49.444;8.522;2023-04-30T09:16:24;77382.88;;;-3.47;42.23
13954;BME280;7049;49.444;8.522;2023-04-30T09:21:34;77376.59;;;-3.47;40.84
13954;BME280;7049;49.444;8.522;2023-04-30T09:26:37;77382.88;;;-3.47;41.29
13954;BME280;7049;49.444;8.522;2023-04-30T09:31:41;77384.97;;;-3.47;41.20
13954;BME280;7049;49.444;8.522;2023-04-30T09:36:54;77370.31;;;-3.47;39.81
13954;BME280;7049;49.444;8.522;2023-04-30T09:42:06;77351.47;;;-3.47;38.72
13954;BME280;7049;49.444;8.522;2023-04-30T09:47:13;77328.47;;;-3.47;39.74
13954;BME280;7049;49.444;8.522;2023-04-30T09:52:17;77311.72;;;-3.47;40.18
13954;BME280;7049;49.444;8.522;2023-04-30T09:57:22;77309.63;;;-3.47;40.37
13954;BME280;7049;49.444;8.522;2023-04-30T10:02:25;77309.63;;;-3.47;39.83
13954;BME280;7049;49.444;8.522;2023-04-30T10:07:33;77303.38;;;-3.47;39.86
13954;BME280;7049;49.444;8.522;2023-04-30T10:12:41;77295.00;;;-3.47;39.52
13954;BME280;7049;49.444;8.522;2023-04-30T10:17:48;77303.38;;;-3.47;39.26
13954;BME280;7049;49.444;8.522;2023-04-30T10:22:52;77315.91;;;-3.47;38.64
13954;BME280;7049;49.444;8.522;2023-04-30T10:27:55;77311.72;;;-3.47;38.93
13954;BME280;7049;49.444;8.522;2023-04-30T10:33:04;77307.53;;;-3.47;39.16
13954;BME280;7049;49.444;8.522;2023-04-30T10:38:21;77295.00;;;-3.47;37.53
13954;BME280;7049;49.444;8.522;2023-04-30T10:43:25;77290.81;;;-3.47;37.71
13954;BME280;7049;49.444;8.522;2023-04-30T10:48:28;77290.81;;;-3.47;37.84
13954;BME280;7049;49.444;8.522;2023-04-30T10:53:35;77286.63;;;-3.47;38.30
13954;BME280;7049;49.444;8.522;2023-04-30T10:58:40;77276.16;;;-3.47;38.91
13954;BME280;7049;49.444;8.522;2023-04-30T11:04:03;77263.63;;;-3.47;38.41
13954;BME280;7049;49.444;8.522;2023-04-30T11:09:07;77253.16;;;-3.47;37.87
13954;BME280;7049;49.444;8.522;2023-04-30T11:14:10;77240.59;;;-3.47;37.57
13954;BME280;7049;49.444;8.522;2023-04-30T11:19:13;77253.16;;;-3.47;37.50
13954;BME280;7049;49.444;8.522;2023-04-30T11:24:18;77253.16;;;-3.47;37.88
13954;BME280;7049;49.444;8.522;2023-04-30T11:29:21;77251.06;;;-3.47;38.44
13954;BME280;7049;49.444;8.522;2023-04-30T11:34:25;77240.59;;;-3.47;38.05
13954;BME280;7049;49.444;8.522;2023-04-30T11:39:31;77232.22;;;-3.47;38.23
13954;BME280;7049;49.444;8.522;2023-04-30T11:44:36;77219.69;;;-3.47;37.68
13954;BME280;7049;49.444;8.522;2023-04-30T11:49:39;77198.75;;;-3.47;36.87
13954;BME280;7049;49.444;8.522;2023-04-30T11:54:42;77182.03;;;-3.47;35.87
13954;BME280;7049;49.444;8.522;2023-04-30T11:59:45;77140.19;;;-3.47;37.45
13954;BME280;7049;49.444;8.522;2023-04-30T12:04:47;77106.72;;;-3.47;36.29
13954;BME280;7049;49.444;8.522;2023-04-30T12:09:55;77098.34;;;-3.47;34.96
13954;BME280;7049;49.444;8.522;2023-04-30T12:14:57;77083.69;;;-3.47;35.38
13954;BME280;7049;49.444;8.522;2023-04-30T12:20:11;77071.13;;;-3.47;35.21
13954;BME280;7049;49.444;8.522;2023-04-30T12:25:17;77071.13;;;-3.47;35.67
13954;BME280;7049;49.444;8.522;2023-04-30T12:30:19;77060.69;;;-3.47;36.12
13954;BME280;7049;49.444;8.522;2023-04-30T12:35:22;77048.13;;;-3.47;35.95
13954;BME280;7049;49.444;8.522;2023-04-30T12:40:26;77031.41;;;-3.47;35.69
13954;BME280;7049;49.444;8.522;2023-04-30T12:45:48;77006.28;;;-3.47;35.74
13954;BME280;7049;49.444;8.522;2023-04-30T12:50:52;76993.75;;;-3.47;35.46
13954;BME280;7049;49.444;8.522;2023-04-30T12:56:16;76962.34;;;-3.47;35.57
13954;BME280;7049;49.444;8.522;2023-04-30T13:01:20;76951.91;;;-3.47;35.01
13954;BME280;7049;49.444;8.522;2023-04-30T13:06:22;76960.25;;;-3.47;34.56
13954;BME280;7049;49.444;8.522;2023-04-30T13:11:25;76958.16;;;-3.47;33.96
13954;BME280;7049;49.444;8.522;2023-04-30T13:16:27;76956.09;;;-3.47;34.96
13954;BME280;7049;49.444;8.522;2023-04-30T13:21:30;76951.91;;;-3.47;35.09
13954;BME280;7049;49.444;8.522;2023-04-30T13:26:33;76949.81;;;-3.47;33.44
13954;BME280;7049;49.444;8.522;2023-04-30T13:31:35;76935.16;;;-3.47;33.30
13954;BME280;7049;49.444;8.522;2023-04-30T13:36:36;76901.69;;;-3.47;32.93
13954;BME280;7049;49.444;8.522;2023-04-30T13:41:39;76901.69;;;-3.47;31.83
13954;BME280;7049;49.444;8.522;2023-04-30T13:46:40;76872.41;;;-3.47;33.07
13954;BME280;7049;49.444;8.522;2023-04-30T13:51:41;76874.50;;;-3.47;32.40
13954;BME280;7049;49.444;8.522;2023-04-30T13:56:44;76872.41;;;-3.47;32.36
13954;BME280;7049;49.444;8.522;2023-04-30T14:01:47;76855.66;;;-3.47;33.30
13954;BME280;7049;49.444;8.522;2023-04-30T14:06:49;76843.13;;;-3.47;32.66
13954;BME280;7049;49.444;8.522;2023-04-30T14:11:56;76822.19;;;-3.47;33.45
13954;BME280;7049;49.444;8.522;2023-04-30T14:16:58;76830.56;;;-3.47;31.29
13954;BME280;7049;49.444;8.522;2023-04-30T14:22:00;76845.22;;;-3.47;31.74
13954;BME280;7049;49.444;8.522;2023-04-30T14:27:02;76845.22;;;-3.47;32.79
13954;BME280;7049;49.444;8.522;2023-04-30T14:32:05;76792.91;;;-3.47;32.81
13954;BME280;7049;49.444;8.522;2023-04-30T14:37:06;76805.47;;;-3.47;31.60
13954;BME280;7049;49.444;8.522;2023-04-30T14:42:09;76803.38;;;-3.47;31.58
13954;BME280;7049;49.444;8.522;2023-04-30T14:47:10;76790.81;;;-3.47;32.14
13954;BME280;7049;49.444;8.522;2023-04-30T14:52:12;76786.63;;;-3.47;32.30
13954;BME280;7049;49.444;8.522;2023-04-30T14:57:15;76772.00;;;-3.47;32.45
13954;BME280;7049;49.444;8.522;2023-04-30T15:02:17;76732.25;;;-3.47;31.17
13954;BME280;7049;49.444;8.522;2023-04-30T15:07:20;76751.06;;;-3.47;31.98
13954;BME280;7049;49.444;8.522;2023-04-30T15:12:23;76751.06;;;-3.47;32.59
13954;BME280;7049;49.444;8.522;2023-04-30T15:17:24;76748.97;;;-3.47;31.71
13954;BME280;7049;49.444;8.522;2023-04-30T15:22:26;76755.25;;;-3.47;31.79
13954;BME280;7049;49.444;8.522;2023-04-30T15:27:28;76767.81;;;-3.47;32.92
13954;BME280;7049;49.444;8.522;2023-04-30T15:32:30;76774.09;;;-3.47;33.18
13954;BME280;7049;49.444;8.522;2023-04-30T15:37:31;76784.53;;;-3.47;33.06
13954;BME280;7049;49.444;8.522;2023-04-30T15:42:35;76780.38;;;-3.47;32.56
13954;BME280;7049;49.444;8.522;2023-04-30T15:47:37;76755.25;;;-3.47;32.59
13954;BME280;7049;49.444;8.522;2023-04-30T15:52:39;76721.78;;;-3.47;32.35
13954;BME280;7049;49.444;8.522;2023-04-30T15:57:41;76734.34;;;-3.47;32.09
13954;BME280;7049;49.444;8.522;2023-04-30T16:02:43;76746.91;;;-3.47;31.58
13954;BME280;7049;49.444;8.522;2023-04-30T16:07:44;76744.81;;;-3.47;31.87
13954;BME280;7049;49.444;8.522;2023-04-30T16:12:47;76723.88;;;-3.47;32.05
13954;BME280;7049;49.444;8.522;2023-04-30T16:17:49;76725.97;;;-3.47;31.27
13954;BME280;7049;49.444;8.522;2023-04-30T16:22:50;76736.44;;;-3.47;31.37
13954;BME280;7049;49.444;8.522;2023-04-30T16:27:53;76751.06;;;-3.47;31.79
13954;BME280;7049;49.444;8.522;2023-04-30T16:32:55;76767.81;;;-3.47;30.94
13954;BME280;7049;49.444;8.522;2023-04-30T16:37:57;76799.19;;;-3.47;31.27
13954;BME280;7049;49.444;8.522;2023-04-30T16:43:00;76820.09;;;-3.47;31.62
13954;BME280;7049;49.444;8.522;2023-04-30T16:48:01;76818.00;;;-3.47;31.93
13954;BME280;7049;49.444;8.522;2023-04-30T16:53:03;76818.00;;;-3.47;32.41
13954;BME280;7049;49.444;8.522;2023-04-30T16:58:06;76801.28;;;-3.47;32.96
13954;BME280;7049;49.444;8.522;2023-04-30T17:03:08;76813.84;;;-3.47;33.43
13954;BME280;7049;49.444;8.522;2023-04-30T17:08:10;76824.28;;;-3.47;33.68
13954;BME280;7049;49.444;8.522;2023-04-30T17:13:13;76834.75;;;-3.47;33.80
13954;BME280;7049;49.444;8.522;2023-04-30T17:18:14;76855.66;;;-3.47;33.20
13954;BME280;7049;49.444;8.522;2023-04-30T17:23:24;76872.41;;;-3.47;33.94
13954;BME280;7049;49.444;8.522;2023-04-30T17:28:30;76884.97;;;-3.47;33.69
13954;BME280;7049;49.444;8.522;2023-04-30T17:33:34;76897.50;;;-3.47;34.26
13954;BME280;7049;49.444;8.522;2023-04-30T17:38:36;76922.63;;;-3.47;34.87
13954;BME280;7049;49.444;8.522;2023-04-30T17:43:40;76951.91;;;-3.47;35.11
13954;BME280;7049;49.444;8.522;2023-04-30T17:48:42;76979.09;;;-3.47;35.14
13954;BME280;7049;49.444;8.522;2023-04-30T17:53:44;76991.66;;;-3.47;35.67
13954;BME280;7049;49.444;8.522;2023-04-30T17:58:51;77010.47;;;-3.47;36.12
13954;BME280;7049;49.444;8.522;2023-04-30T18:03:57;77033.47;;;-3.47;37.07
13954;BME280;7049;49.444;8.522;2023-04-30T18:08:59;77043.94;;;-3.47;37.99
13954;BME280;7049;49.444;8.522;2023-04-30T18:14:03;77064.88;;;-3.47;38.86
13954;BME280;7049;49.444;8.522;2023-04-30T18:19:06;77092.06;;;-3.47;39.90
13954;BME280;7049;49.444;8.522;2023-04-30T18:24:09;77110.88;;;-3.47;41.26
13954;BME280;7049;49.444;8.522;2023-04-30T18:29:11;77133.91;;;-3.47;42.14
13954;BME280;7049;49.444;8.522;2023-04-30T18:34:14;77167.38;;;-3.47;42.75
13954;BME280;7049;49.444;8.522;2023-04-30T18:39:16;77188.28;;;-3.47;43.84
13954;BME280;7049;49.444;8.522;2023-04-30T18:44:27;77209.22;;;-3.47;45.27
13954;BME280;7049;49.444;8.522;2023-04-30T18:49:29;77232.22;;;-3.47;46.38
13954;BME280;7049;49.444;8.522;2023-04-30T18:54:31;77253.16;;;-3.47;47.25
13954;BME280;7049;49.444;8.522;2023-04-30T18:59:33;77278.25;;;-3.47;47.88
13954;BME280;7049;49.444;8.522;2023-04-30T19:04:35;77299.19;;;-3.47;48.94
13954;BME280;7049;49.444;8.522;2023-04-30T19:09:36;77322.19;;;-3.47;49.97
13954;BME280;7049;49.444;8.522;2023-04-30T19:14:39;77345.22;;;-3.47;51.83
13954;BME280;7049;49.444;8.522;2023-04-30T19:19:41;77357.75;;;-3.47;53.65
13954;BME280;7049;49.444;8.522;2023-04-30T19:24:43;77382.88;;;-3.47;54.71
13954;BME280;7049;49.444;8.522;2023-04-30T19:29:46;77407.97;;;-3.47;55.91
13954;BME280;7049;49.444;8.522;2023-04-30T19:34:47;77428.91;;;-3.47;57.64
13954;BME280;7049;49.444;8.522;2023-04-30T19:39:49;77451.91;;;-3.47;58.12
13954;BME280;7049;49.444;8.522;2023-04-30T19:44:52;77462.38;;;-3.47;59.06
13954;BME280;7049;49.444;8.522;2023-04-30T19:49:53;77479.09;;;-3.47;60.45
13954;BME280;7049;49.444;8.522;2023-04-30T19:54:54;77489.56;;;-3.47;61.94
13954;BME280;7049;49.444;8.522;2023-04-30T19:59:57;77504.22;;;-3.47;63.12
13954;BME280;7049;49.444;8.522;2023-04-30T20:04:59;77523.03;;;-3.47;64.39
13954;BME280;7049;49.444;8.522;2023-04-30T20:10:00;77535.59;;;-3.47;64.52
13954;BME280;7049;49.444;8.522;2023-04-30T20:15:04;77541.88;;;-3.47;64.75
13954;BME280;7049;49.444;8.522;2023-04-30T20:20:06;77550.25;;;-3.47;65.64
13954;BME280;7049;49.444;8.522;2023-04-30T20:25:08;77558.63;;;-3.47;65.50
13954;BME280;7049;49.444;8.522;2023-04-30T20:30:11;77566.97;;;-3.47;64.00
13954;BME280;7049;49.444;8.522;2023-04-30T20:35:13;77571.16;;;-3.47;64.08
13954;BME280;7049;49.444;8.522;2023-04-30T20:40:16;77581.63;;;-3.47;64.38
13954;BME280;7049;49.444;8.522;2023-04-30T20:45:23;77587.91;;;-3.47;65.26
13954;BME280;7049;49.444;8.522;2023-04-30T20:50:28;77598.38;;;-3.47;66.45
13954;BME280;7049;49.444;8.522;2023-04-30T20:55:33;77606.75;;;-3.47;67.03
13954;BME280;7049;49.444;8.522;2023-04-30T21:00:43;77623.47;;;-3.47;67.69
13954;BME280;7049;49.444;8.522;2023-04-30T21:05:54;77633.94;;;-3.47;68.57
13954;BME280;7049;49.444;8.522;2023-04-30T21:10:56;77642.31;;;-3.47;69.97
13954;BME280;7049;49.444;8.522;2023-04-30T21:15:59;77652.78;;;-3.47;70.53
13954;BME280;7049;49.444;8.522;2023-04-30T21:21:01;77652.78;;;-3.47;71.54
13954;BME280;7049;49.444;8.522;2023-04-30T21:26:03;77656.94;;;-3.47;72.62
13954;BME280;7049;49.444;8.522;2023-04-30T21:31:07;77663.22;;;-3.47;73.12
13954;BME280;7049;49.444;8.522;2023-04-30T21:36:09;77671.59;;;-3.47;74.28
13954;BME280;7049;49.444;8.522;2023-04-30T21:41:14;77673.69;;;-3.47;74.92
13954;BME280;7049;49.444;8.522;2023-04-30T21:46:17;77677.88;;;-3.47;75.41
13954;BME280;7049;49.444;8.522;2023-04-30T21:51:18;77677.88;;;-3.47;75.86
13954;BME280;7049;49.444;8.522;2023-04-30T21:56:20;77690.44;;;-3.47;76.32
13954;BME280;7049;49.444;8.522;2023-04-30T22:01:23;77696.72;;;-3.47;76.47
13954;BME280;7049;49.444;8.522;2023-04-30T22:06:29;77698.81;;;-3.47;77.05
13954;BME280;7049;49.444;8.522;2023-04-30T22:11:34;77705.09;;;-3.47;77.51
13954;BME280;7049;49.444;8.522;2023-04-30T22:16:36;77703.00;;;-3.47;78.37
13954;BME280;7049;49.444;8.522;2023-04-30T22:21:38;77705.09;;;-3.47;79.01
13954;BME280;7049;49.444;8.522;2023-04-30T22:26:39;77713.44;;;-3.47;79.43
13954;BME280;7049;49.444;8.522;2023-04-30T22:31:42;77715.53;;;-3.47;79.39
13954;BME280;7049;49.444;8.522;2023-04-30T22:36:44;77719.72;;;-3.47;79.50
13954;BME280;7049;49.444;8.522;2023-04-30T22:41:45;77719.72;;;-3.47;79.64
13954;BME280;7049;49.444;8.522;2023-04-30T22:46:48;77728.09;;;-3.47;79.76
13954;BME280;7049;49.444;8.522;2023-04-30T22:51:51;77734.38;;;-3.47;79.93
13954;BME280;7049;49.444;8.522;2023-04-30T22:56:52;77740.66;;;-3.47;79.91
13954;BME280;7049;49.444;8.522;2023-04-30T23:01:55;77751.13;;;-3.47;80.06
13954;BME280;7049;49.444;8.522;2023-04-30T23:06:57;77761.56;;;-3.47;80.35
13954;BME280;7049;49.444;8.522;2023-04-30T23:11:59;77755.28;;;-3.47;81.04
13954;BME280;7049;49.444;8.522;2023-04-30T23:17:02;77761.56;;;-3.47;81.62
13954;BME280;7049;49.444;8.522;2023-04-30T23:22:04;77769.94;;;-3.47;82.24
13954;BME280;7049;49.444;8.522;2023-04-30T23:27:05;77772.03;;;-3.47;82.37
13954;BME280;7049;49.444;8.522;2023-04-30T23:32:09;77782.50;;;-3.47;82.44
13954;BME280;7049;49.444;8.522;2023-04-30T23:37:11;77788.78;;;-3.47;82.55
13954;BME280;7049;49.444;8.522;2023-04-30T23:42:13;77784.59;;;-3.47;82.91
13954;BME280;7049;49.444;8.522;2023-04-30T23:47:16;77792.97;;;-3.47;82.86
13954;BME280;7049;49.444;8.522;2023-04-30T23:52:17;77795.06;;;-3.47;82.90
13954;BME280;7049;49.444;8.522;2023-04-30T23:57:19;77797.16;;;-3.47;83.36
